メインページ
METAR-TAF:

METAR-TAF

空港 :

Swift Current, サスカチュワン州, カナダ

緯度: 50-17N, 経度: 107-41W, 海抜: 818m

現時点の気象観測

当レポートは34分前の17:00(UTC)に作成
南/南東の風 13kt
気温 17°C
湿度 77%
気圧 1004 hPa
視程: 14.5km
高度19000ftの千切れ雲あり
高度22000ftの千切れ雲あり

METAR: CYYN 191700Z AUTO 16013KT 9SM BKN190 BKN220 17/13 A2966 RMK SLP045 DENSITY ALT 3800FT

時間: 11:34 (17:34 UTC)

予報

当レポートは3時間26分前の14:08(UTC)に作成
予報は19日の 14時(UTC)から 19日の 24時(UTC)まで有効
南東の風 12kt
視程: 10km
高度800ftの曇り
19日の 14時(UTC)から 19日の 17時(UTC)まで一時的に
高度800ftの雲は散在している
高度8000ftの千切れ雲あり
19日の 14時(UTC)から 19日の 16時(UTC)まで徐々に
の風 12kt
19日の 1700時(UTC)から
南/南西の風 15kt
視程: 10km
高度5000ftの雲は散在している
高度8000ftの千切れ雲あり
弱いにわか雨
19日の 2200時(UTC)から
西の風 15kt、最大25ktの突風を伴う
視程: 10km
高度5000ftの千切れ雲あり
高度8000ftの曇り
弱いにわか雨
19日の 22時(UTC)から 19日の 24時(UTC)まで一時的に
変向風 20kt、最大30ktの突風を伴う
視程: 8.0km
高度4000ftの曇り, 積乱雲.
激しい雷雨, 雨

TAF: CYYN 191408Z 1914/1924 14012KT P6SM OVC008 TEMPO 1914/1917 SCT008 BKN080 BECMG 1914/1916 18012KT FM191700 20015KT P6SM -SHRA SCT050 BKN080 FM192200 28015G25KT P6SM -SHRA BKN050 OVC080 TEMPO 1922/1924 VRB20G30KT 5SM TSRA OVC040CB RMK FCST BASED ON AUTO OBS. NXT FCST BY 191800Z

4,000以上の空港の気象観測と天気予報(METAR報とTAF報)

利用可能な観測所は地図上に黄色い丸と赤い丸で示す。

丸の上にカーソルを重ねると観測所名を参照できる。

次にクリックすると気象観測と天気予報を参照できる。

マップの切り替え:黒色「×」印の緑ボタンをクリックして拡大、「-」印の緑ボタンをクリックして縮小、緑色の三角印をクリックして隣りの地図に切り替え


METAR-TAF: